Time;durP1;ratioP1;P1;durP2;ratioP2;P2;SDS_P1;SDS_P2;PMS_P1;PMS_P2;Temp;Humidity;BMP_temperature;BMP_pressure;BME280_temperature;BME280_humidity;BME280_pressure;Samples;Min_cycle;Max_cycle;Signal;HPM_P1;HPM_P2
2022/08/19 00:00:00;;;;;;;8.45;7.55;;;17.40;99.90;;;;;;5053704;28;20052;-81
2022/08/19 00:02:25;;;;;;;13.25;7.72;;;17.40;99.90;;;;;;5053950;28;20024;-80
2022/08/19 00:04:52;;;;;;;11.32;8.35;;;17.40;99.90;;;;;;5053758;28;20032;-80
2022/08/19 00:07:19;;;;;;;9.20;8.27;;;17.40;99.90;;;;;;5053970;28;20013;-81
2022/08/19 00:09:45;;;;;;;9.32;8.30;;;17.50;99.90;;;;;;5053661;28;20025;-81
2022/08/19 00:12:10;;;;;;;11.48;8.70;;;17.50;99.90;;;;;;5044788;28;20350;-80
2022/08/19 00:14:38;;;;;;;11.40;10.15;;;17.50;99.90;;;;;;5053957;28;20017;-80
2022/08/19 00:17:06;;;;;;;12.00;10.43;;;17.50;99.90;;;;;;5053755;28;20021;-81
2022/08/19 00:19:32;;;;;;;11.05;9.95;;;17.50;99.90;;;;;;5054014;28;20017;-81
2022/08/19 00:21:58;;;;;;;10.50;9.45;;;17.50;99.90;;;;;;5053662;28;20425;-81
2022/08/19 00:24:24;;;;;;;13.65;10.30;;;17.50;99.90;;;;;;5053495;28;20057;-81
2022/08/19 00:26:50;;;;;;;11.95;10.65;;;17.50;99.90;;;;;;5053739;28;20048;-81
2022/08/19 00:29:18;;;;;;;13.70;11.70;;;17.50;99.90;;;;;;5053171;28;20481;-81
2022/08/19 00:31:44;;;;;;;11.32;9.85;;;17.50;99.90;;;;;;5052078;28;20727;-81
2022/08/19 00:34:11;;;;;;;13.18;11.32;;;17.50;99.90;;;;;;5052696;28;20033;-81
2022/08/19 00:36:37;;;;;;;12.98;11.13;;;17.60;99.90;;;;;;5053376;28;20021;-82
2022/08/19 00:39:03;;;;;;;13.80;12.13;;;17.60;99.90;;;;;;5053017;28;20070;-81
2022/08/19 00:41:29;;;;;;;13.85;11.75;;;17.60;99.90;;;;;;5053265;28;20386;-81
2022/08/19 00:44:05;;;;;;;16.00;11.75;;;17.70;99.90;;;;;;5048789;28;20053;-81
2022/08/19 00:46:33;;;;;;;12.20;10.52;;;17.70;99.90;;;;;;5053011;28;20024;-81
2022/08/19 00:49:00;;;;;;;13.98;11.93;;;17.70;99.90;;;;;;5052876;28;20025;-81
2022/08/19 00:51:28;;;;;;;14.27;12.60;;;17.70;99.90;;;;;;5053240;28;20087;-81
2022/08/19 00:53:56;;;;;;;13.98;12.52;;;17.70;99.90;;;;;;5052800;28;20378;-81
2022/08/19 00:56:23;;;;;;;14.20;12.73;;;17.70;99.90;;;;;;5052887;28;20021;-81
2022/08/19 00:58:49;;;;;;;14.48;12.80;;;17.70;99.90;;;;;;5052778;28;20032;-81
2022/08/19 01:01:14;;;;;;;12.32;11.02;;;17.70;99.90;;;;;;5052785;28;20032;-81
2022/08/19 01:03:40;;;;;;;14.02;12.63;;;17.70;99.90;;;;;;5052710;28;20409;-81
2022/08/19 01:06:06;;;;;;;15.80;12.48;;;17.70;99.90;;;;;;5052621;28;20389;-81
2022/08/19 01:08:31;;;;;;;15.45;12.90;;;17.70;99.90;;;;;;5052626;28;20082;-81
2022/08/19 01:10:59;;;;;;;16.65;13.20;;;17.70;99.90;;;;;;5052324;28;20032;-81
2022/08/19 01:13:28;;;;;;;17.92;13.63;;;17.70;99.90;;;;;;5050057;28;20057;-81
2022/08/19 01:16:07;;;;;;;16.48;13.48;;;17.70;99.90;;;;;;5052525;28;20079;-81
2022/08/19 01:18:38;;;;;;;17.17;13.65;;;17.70;99.90;;;;;;5052660;28;20057;-81
2022/08/19 01:21:26;;;;;;;21.90;13.95;;;17.70;99.90;;;;;;5046770;28;20063;-82
2022/08/19 01:23:52;;;;;;;16.15;14.30;;;17.70;99.90;;;;;;5047199;28;20119;-81
2022/08/19 01:26:21;;;;;;;16.10;13.75;;;17.70;99.90;;;;;;5052383;28;20035;-81
2022/08/19 01:28:50;;;;;;;17.92;14.27;;;17.70;99.90;;;;;;5052483;28;20041;-81
2022/08/19 01:31:21;;;;;;;16.75;15.02;;;17.70;99.90;;;;;;5052101;28;20465;-81
2022/08/19 01:33:48;;;;;;;16.92;14.18;;;17.70;99.90;;;;;;5046904;28;20025;-81
2022/08/19 01:36:22;;;;;;;17.88;14.40;;;17.70;99.90;;;;;;5052081;28;20013;-80
2022/08/19 01:38:48;;;;;;;19.20;14.25;;;17.70;99.90;;;;;;5052344;28;20032;-82
2022/08/19 01:41:14;;;;;;;17.60;14.35;;;17.70;99.90;;;;;;5047368;28;20028;-83
2022/08/19 01:43:40;;;;;;;17.33;13.70;;;17.70;99.90;;;;;;5042954;28;20520;-83
2022/08/19 01:46:06;;;;;;;15.25;13.60;;;17.70;99.90;;;;;;5049488;28;20029;-83
2022/08/19 01:48:40;;;;;;;14.73;12.65;;;17.70;99.90;;;;;;5052992;28;20083;-83
2022/08/19 01:51:07;;;;;;;16.15;13.65;;;17.70;99.90;;;;;;5052768;28;20049;-83
2022/08/19 01:53:34;;;;;;;13.93;12.45;;;17.70;99.90;;;;;;5053054;28;20033;-83
2022/08/19 01:56:00;;;;;;;15.07;13.50;;;17.70;99.90;;;;;;5052863;28;20017;-83
2022/08/19 01:58:42;;;;;;;15.63;13.40;;;17.70;99.90;;;;;;5052652;28;20018;-83
2022/08/19 02:01:08;;;;;;;14.85;12.32;;;17.70;99.90;;;;;;5052445;28;20016;-83
2022/08/19 02:03:37;;;;;;;15.48;13.30;;;17.70;99.90;;;;;;5052814;28;20033;-83
2022/08/19 02:06:03;;;;;;;16.58;13.48;;;17.80;99.90;;;;;;5069865;28;20039;-83
2022/08/19 02:08:29;;;;;;;15.13;13.52;;;17.80;99.90;;;;;;5058795;28;20028;-83
2022/08/19 02:10:56;;;;;;;16.40;13.48;;;17.80;99.90;;;;;;5054134;28;20021;-83
2022/08/19 02:13:22;;;;;;;14.32;12.82;;;17.70;99.90;;;;;;5063179;28;20036;-83
2022/08/19 02:15:48;;;;;;;14.85;12.57;;;17.70;99.90;;;;;;5069707;28;20024;-83
2022/08/19 02:18:14;;;;;;;16.15;14.43;;;17.70;99.90;;;;;;5060400;28;20388;-83
2022/08/19 02:20:41;;;;;;;15.75;13.00;;;17.70;99.90;;;;;;5062746;28;20033;-83
2022/08/19 02:23:07;;;;;;;15.30;12.95;;;17.70;99.90;;;;;;5051360;28;20021;-83
2022/08/19 02:25:33;;;;;;;16.55;14.45;;;17.70;99.90;;;;;;5051252;28;20496;-83
2022/08/19 02:27:59;;;;;;;15.95;13.32;;;17.70;99.90;;;;;;5065279;28;20428;-83
2022/08/19 02:30:24;;;;;;;15.02;12.93;;;17.70;99.90;;;;;;5055476;28;20036;-83
2022/08/19 02:32:51;;;;;;;14.10;12.40;;;17.70;99.90;;;;;;5065196;28;20028;-83
2022/08/19 02:35:17;;;;;;;16.17;13.00;;;17.70;99.90;;;;;;5060021;28;20503;-83
2022/08/19 02:40:29;;;;;;;15.95;12.55;;;17.70;99.90;;;;;;5055972;28;20082;-83
2022/08/19 02:42:55;;;;;;;15.25;12.35;;;17.70;99.90;;;;;;5054930;28;20489;-83
2022/08/19 02:45:21;;;;;;;13.20;10.80;;;17.70;99.90;;;;;;5056239;28;20373;-83
2022/08/19 02:47:47;;;;;;;12.50;11.20;;;17.60;99.90;;;;;;5056785;28;20017;-83
2022/08/19 02:50:13;;;;;;;16.58;11.40;;;17.60;99.90;;;;;;5070471;28;20527;-84
2022/08/19 02:52:39;;;;;;;12.88;11.05;;;17.60;99.90;;;;;;5056262;28;20035;-83
2022/08/19 02:55:05;;;;;;;12.27;10.50;;;17.60;99.90;;;;;;5059722;28;20463;-83
2022/08/19 02:57:31;;;;;;;12.73;9.93;;;17.60;99.90;;;;;;5076248;28;20025;-83
2022/08/19 02:59:58;;;;;;;14.35;10.90;;;17.60;99.90;;;;;;5074457;28;20032;-83
2022/08/19 03:02:24;;;;;;;10.48;9.38;;;17.60;99.90;;;;;;5056014;28;20016;-83
2022/08/19 03:04:50;;;;;;;13.25;10.25;;;17.60;99.90;;;;;;5056050;28;20029;-83
2022/08/19 03:07:18;;;;;;;11.38;9.32;;;17.60;99.90;;;;;;5055763;28;20045;-83
2022/08/19 03:09:44;;;;;;;11.25;9.80;;;17.70;99.90;;;;;;5055959;28;20039;-83
2022/08/19 03:12:09;;;;;;;12.15;10.38;;;17.70;99.90;;;;;;5063046;28;20485;-83
2022/08/19 03:14:36;;;;;;;10.98;9.77;;;17.60;99.90;;;;;;5069846;28;20095;-83
2022/08/19 03:17:03;;;;;;;12.07;10.80;;;17.60;99.90;;;;;;5075787;28;20120;-83
2022/08/19 03:19:31;;;;;;;13.07;10.65;;;17.60;99.90;;;;;;5075868;28;20017;-83
2022/08/19 03:21:56;;;;;;;13.05;11.07;;;17.60;99.90;;;;;;5072703;28;20037;-83
2022/08/19 03:24:22;;;;;;;14.40;11.43;;;17.60;99.90;;;;;;5069637;28;20094;-83
2022/08/19 03:26:52;;;;;;;11.82;10.50;;;17.70;99.90;;;;;;5067192;28;20039;-84
2022/08/19 03:29:19;;;;;;;13.55;11.68;;;17.70;99.90;;;;;;5057588;28;20021;-83
2022/08/19 03:31:45;;;;;;;12.55;10.68;;;17.60;99.90;;;;;;5064711;28;20024;-83
2022/08/19 03:34:13;;;;;;;15.10;11.07;;;17.60;99.90;;;;;;5065352;28;20033;-83
2022/08/19 03:36:39;;;;;;;12.98;11.38;;;17.70;99.90;;;;;;5055590;28;20095;-83
2022/08/19 03:39:04;;;;;;;15.48;12.18;;;17.70;99.90;;;;;;5056226;28;20041;-83
2022/08/19 03:41:33;;;;;;;16.02;12.13;;;17.70;99.90;;;;;;5059132;28;20025;-83
2022/08/19 03:43:59;;;;;;;15.32;11.32;;;17.70;99.90;;;;;;5055752;28;20060;-83
2022/08/19 03:46:30;;;;;;;12.32;10.40;;;17.70;99.90;;;;;;5054655;28;20347;-83
2022/08/19 03:48:58;;;;;;;13.27;11.00;;;17.70;99.90;;;;;;5046668;28;20035;-83
2022/08/19 03:51:27;;;;;;;13.23;11.77;;;17.70;99.90;;;;;;5056020;28;20049;-83
2022/08/19 03:53:54;;;;;;;14.25;11.60;;;17.70;99.90;;;;;;5052640;28;20028;-83
2022/08/19 03:56:20;;;;;;;13.90;11.63;;;17.70;99.90;;;;;;5060118;28;20028;-83
2022/08/19 03:58:46;;;;;;;13.45;11.63;;;17.70;99.90;;;;;;5058480;28;20452;-83
2022/08/19 04:01:17;;;;;;;16.48;12.27;;;17.70;99.90;;;;;;5061230;28;20027;-83
2022/08/19 04:03:43;;;;;;;15.15;12.80;;;17.70;99.90;;;;;;5047469;28;20036;-83
2022/08/19 04:06:14;;;;;;;15.15;12.80;;;17.70;99.90;;;;;;5054523;28;20029;-83
2022/08/19 04:08:41;;;;;;;16.35;13.65;;;17.70;99.90;;;;;;5043377;28;20048;-83
2022/08/19 04:11:09;;;;;;;19.75;15.20;;;17.60;99.90;;;;;;5056282;28;20068;-87
2022/08/19 04:13:34;;;;;;;20.08;14.57;;;17.60;99.90;;;;;;5044199;28;20457;-85
2022/08/19 04:16:00;;;;;;;17.83;14.15;;;17.60;99.90;;;;;;5074247;28;20056;-85
2022/08/19 04:18:26;;;;;;;20.00;15.57;;;17.50;99.90;;;;;;5053147;28;20066;-85
2022/08/19 04:20:51;;;;;;;18.90;15.50;;;17.50;99.90;;;;;;5053853;28;20103;-82
2022/08/19 04:23:18;;;;;;;20.55;15.77;;;17.50;99.90;;;;;;5053953;28;20149;-83
2022/08/19 04:25:44;;;;;;;19.63;15.23;;;17.50;99.90;;;;;;5051300;28;20021;-83
2022/08/19 04:28:11;;;;;;;16.35;14.05;;;17.50;99.90;;;;;;5051085;28;20401;-83
2022/08/19 04:30:48;;;;;;;15.90;13.65;;;17.50;99.90;;;;;;5054672;28;20506;-83
2022/08/19 04:33:15;;;;;;;18.02;15.57;;;17.50;99.90;;;;;;5048786;28;20033;-83
2022/08/19 04:35:44;;;;;;;17.50;14.70;;;17.50;99.90;;;;;;5063444;28;20085;-83
2022/08/19 04:38:10;;;;;;;20.50;15.18;;;17.60;99.90;;;;;;5062862;28;20020;-83
2022/08/19 04:43:30;;;;;;;18.42;14.65;;;17.60;99.90;;;;;;5054131;28;20055;-83
2022/08/19 04:45:56;;;;;;;19.55;14.25;;;17.60;99.90;;;;;;5055516;28;20058;-83
2022/08/19 04:48:26;;;;;;;16.80;14.55;;;17.60;99.90;;;;;;5061031;28;20110;-83
2022/08/19 04:50:59;;;;;;;17.60;14.40;;;17.60;99.90;;;;;;5061578;28;20067;-87
2022/08/19 04:53:29;;;;;;;19.27;14.13;;;17.60;99.90;;;;;;5047909;28;20386;-87
2022/08/19 04:55:56;;;;;;;18.33;14.93;;;17.70;99.90;;;;;;5046324;28;20020;-87
2022/08/19 04:58:24;;;;;;;18.23;14.10;;;17.70;99.90;;;;;;5052743;28;20020;-88
2022/08/19 05:00:50;;;;;;;18.15;14.38;;;17.70;99.90;;;;;;5054916;28;20020;-80
2022/08/19 05:03:16;;;;;;;18.95;14.43;;;17.70;99.90;;;;;;5057349;28;20078;-80
2022/08/19 05:05:43;;;;;;;15.88;13.20;;;17.70;99.90;;;;;;5065728;28;20021;-80
2022/08/19 05:08:08;;;;;;;20.85;13.48;;;17.70;99.90;;;;;;5063847;28;20472;-80
2022/08/19 05:10:40;;;;;;;18.02;14.82;;;17.70;99.90;;;;;;5066739;28;20119;-80
2022/08/19 05:13:06;;;;;;;20.23;14.45;;;17.70;99.90;;;;;;5058466;28;20037;-80
2022/08/19 05:15:31;;;;;;;18.23;14.60;;;17.80;99.90;;;;;;5063542;28;20028;-80
2022/08/19 05:23:25;;;;;;;19.10;14.88;;;17.70;99.90;;;;;;5049583;28;20099;-80
2022/08/19 05:25:51;;;;;;;17.60;15.07;;;17.70;99.90;;;;;;5050193;28;21235;-80
2022/08/19 05:28:18;;;;;;;18.63;15.20;;;17.70;99.90;;;;;;5041937;28;20037;-80
2022/08/19 05:30:44;;;;;;;18.77;15.50;;;17.80;99.90;;;;;;5045058;28;20481;-80
2022/08/19 05:33:11;;;;;;;17.27;15.18;;;17.80;99.90;;;;;;5050249;28;20037;-80
2022/08/19 05:35:38;;;;;;;17.42;14.70;;;17.80;99.90;;;;;;5064615;28;20116;-80
2022/08/19 05:38:07;;;;;;;19.27;16.52;;;17.80;99.90;;;;;;5062488;28;20024;-80
2022/08/19 05:40:35;;;;;;;19.55;16.55;;;17.80;99.90;;;;;;5060731;28;20119;-76
2022/08/19 05:43:02;;;;;;;19.05;16.65;;;17.90;99.90;;;;;;5053325;28;20045;-76
2022/08/19 05:45:27;;;;;;;19.33;16.27;;;17.90;99.90;;;;;;5053517;28;20086;-76
2022/08/19 05:47:54;;;;;;;21.05;16.52;;;17.90;99.90;;;;;;5044400;28;20033;-76
2022/08/19 05:50:19;;;;;;;19.48;16.92;;;18.00;99.90;;;;;;5051903;28;20029;-87
2022/08/19 05:52:45;;;;;;;19.77;17.50;;;18.00;99.90;;;;;;5055920;28;20036;-87
2022/08/19 05:55:11;;;;;;;20.50;17.83;;;18.00;99.90;;;;;;5052258;28;20075;-87
2022/08/19 05:57:36;;;;;;;22.70;18.75;;;18.00;99.90;;;;;;5052784;28;20374;-89
2022/08/19 06:00:08;;;;;;;22.05;18.95;;;18.00;99.90;;;;;;5046386;28;20032;-90
2022/08/19 06:02:35;;;;;;;24.08;18.58;;;18.10;99.90;;;;;;5053089;28;20021;-90
2022/08/19 06:05:02;;;;;;;23.95;20.42;;;18.10;99.90;;;;;;5046040;28;20027;-90
2022/08/19 06:07:28;;;;;;;22.23;19.80;;;18.10;99.90;;;;;;5051193;28;20021;-89
2022/08/19 06:09:54;;;;;;;23.25;19.90;;;18.10;99.90;;;;;;5042896;28;20023;-90
2022/08/19 06:12:26;;;;;;;22.42;20.08;;;18.10;99.90;;;;;;5052262;28;20488;-90
2022/08/19 06:14:54;;;;;;;23.75;21.10;;;18.10;99.90;;;;;;5049383;28;20056;-89
2022/08/19 06:17:20;;;;;;;23.35;20.85;;;18.10;99.90;;;;;;5049265;28;20506;-89
2022/08/19 06:19:46;;;;;;;26.63;21.60;;;18.10;99.90;;;;;;5039532;28;20021;-90
2022/08/19 06:22:17;;;;;;;26.63;22.45;;;18.00;99.90;;;;;;5049954;28;20021;-89
2022/08/19 06:24:52;;;;;;;23.63;21.10;;;18.00;99.90;;;;;;5050065;28;20441;-89
2022/08/19 06:27:20;;;;;;;24.83;22.08;;;18.10;99.90;;;;;;5037111;28;20052;-89
2022/08/19 06:29:46;;;;;;;28.23;21.80;;;18.00;99.90;;;;;;5051259;28;20036;-89
2022/08/19 06:32:41;;;;;;;24.80;20.65;;;18.10;99.90;;;;;;5040076;28;20025;-89
2022/08/19 06:35:10;;;;;;;24.52;20.27;;;18.10;99.90;;;;;;5033137;28;20433;-90
2022/08/19 06:37:38;;;;;;;24.15;20.92;;;18.10;99.90;;;;;;5047085;28;20056;-89
2022/08/19 06:40:08;;;;;;;22.10;19.17;;;18.10;99.90;;;;;;5042090;28;20021;-89
2022/08/19 06:42:34;;;;;;;21.50;18.45;;;18.10;99.90;;;;;;5039015;28;20061;-89
2022/08/19 06:45:02;;;;;;;21.23;18.08;;;18.10;99.90;;;;;;5045163;28;20045;-89
2022/08/19 06:47:28;;;;;;;21.00;16.58;;;18.10;99.90;;;;;;5028575;28;20025;-90
2022/08/19 06:50:04;;;;;;;21.45;17.05;;;18.10;99.90;;;;;;5052472;28;20032;-90
2022/08/19 06:52:36;;;;;;;20.15;17.38;;;18.10;99.90;;;;;;5046113;28;20176;-89
2022/08/19 06:55:05;;;;;;;21.30;18.98;;;18.10;99.90;;;;;;5041349;28;20037;-89
2022/08/19 06:57:32;;;;;;;23.02;18.80;;;18.10;99.90;;;;;;5027564;28;20029;-89
2022/08/19 06:59:59;;;;;;;24.63;20.15;;;18.10;99.90;;;;;;5048982;28;20033;-89
2022/08/19 07:02:26;;;;;;;22.73;20.27;;;18.10;99.90;;;;;;5041879;28;20024;-88
2022/08/19 07:04:52;;;;;;;28.15;22.27;;;18.10;99.90;;;;;;5049754;28;20141;-89
2022/08/19 07:07:20;;;;;;;27.63;23.73;;;18.10;99.90;;;;;;5034737;28;20469;-88
2022/08/19 07:09:46;;;;;;;28.75;24.30;;;18.10;99.90;;;;;;5052451;28;20040;-91
2022/08/19 07:12:15;;;;;;;29.50;23.85;;;18.10;99.90;;;;;;5052603;28;20453;-92
2022/08/19 07:14:48;;;;;;;29.63;24.83;;;18.10;99.90;;;;;;5034652;28;20035;-91
2022/08/19 07:17:18;;;;;;;33.05;26.08;;;18.10;99.90;;;;;;5052404;28;20064;-91
2022/08/19 07:19:48;;;;;;;32.30;26.85;;;18.20;99.90;;;;;;5034654;28;20056;-92
2022/08/19 07:22:14;;;;;;;32.00;26.63;;;18.20;99.90;;;;;;5048959;28;20057;-91
2022/08/19 07:24:40;;;;;;;34.47;27.73;;;18.30;99.90;;;;;;5056087;28;20025;-91
2022/08/19 07:27:16;;;;;;;37.35;27.58;;;18.40;99.90;;;;;;5042354;28;20029;-92
2022/08/19 07:29:45;;;;;;;40.55;30.10;;;18.50;99.90;;;;;;5043218;28;20025;-92
2022/08/19 07:32:20;;;;;;;37.85;29.67;;;18.60;99.90;;;;;;5056152;28;20135;-91
2022/08/19 07:34:56;;;;;;;35.92;30.38;;;18.70;99.90;;;;;;5032504;28;20057;-92
2022/08/19 07:37:26;;;;;;;37.95;30.40;;;18.70;99.90;;;;;;5056086;28;20377;-91
2022/08/19 07:39:56;;;;;;;36.78;29.70;;;18.80;99.90;;;;;;5042922;28;20017;-91
2022/08/19 07:42:29;;;;;;;39.47;31.05;;;18.80;99.90;;;;;;5042730;28;20044;-91
2022/08/19 07:44:55;;;;;;;34.30;28.33;;;18.90;99.90;;;;;;5075581;28;20111;-91
2022/08/19 07:47:21;;;;;;;38.28;30.92;;;19.00;99.90;;;;;;5075844;28;20099;-89
2022/08/19 07:49:47;;;;;;;40.70;30.55;;;19.10;99.90;;;;;;5049004;28;20021;-91
2022/08/19 07:52:34;;;;;;;39.88;31.73;;;19.10;99.90;;;;;;5065417;28;21872;-91
2022/08/19 07:54:59;;;;;;;37.85;30.52;;;19.10;99.90;;;;;;5071506;28;20117;-92
2022/08/19 07:57:27;;;;;;;39.58;30.58;;;19.20;99.90;;;;;;5073927;28;20064;-91
2022/08/19 07:59:55;;;;;;;37.03;29.75;;;19.20;99.90;;;;;;5049700;28;20024;-91
2022/08/19 08:02:24;;;;;;;39.75;32.22;;;19.20;99.90;;;;;;5069370;28;20031;-90
2022/08/19 08:10:18;;;;;;;37.03;27.60;;;19.10;99.90;;;;;;5074682;28;20039;-90
2022/08/19 08:12:44;;;;;;;35.55;29.67;;;19.10;99.90;;;;;;5057019;28;20368;-91
2022/08/19 08:15:18;;;;;;;34.72;28.55;;;19.20;99.90;;;;;;5075165;28;20021;-91
2022/08/19 08:17:45;;;;;;;34.97;30.17;;;19.30;99.90;;;;;;5062198;28;20021;-91
2022/08/19 08:20:11;;;;;;;39.55;29.73;;;19.30;99.90;;;;;;5075392;28;20108;-90
2022/08/19 08:25:23;;;;;;;34.97;28.77;;;19.40;99.90;;;;;;5086313;28;20027;-90
2022/08/19 08:27:49;;;;;;;38.65;30.33;;;19.30;99.90;;;;;;5056701;28;20031;-79
2022/08/19 08:30:18;;;;;;;36.60;31.05;;;19.30;99.90;;;;;;5074469;28;20024;-90
2022/08/19 08:32:44;;;;;;;36.95;29.73;;;19.30;99.90;;;;;;5088864;28;20314;-90
2022/08/19 08:35:14;;;;;;;37.28;30.85;;;19.20;99.90;;;;;;5075135;28;20032;-91
2022/08/19 08:37:39;;;;;;;35.90;29.92;;;19.20;99.90;;;;;;5077312;28;20020;-90
2022/08/19 08:40:13;;;;;;;42.20;31.83;;;19.10;99.90;;;;;;5093495;28;20073;-90
2022/08/19 08:42:48;;;;;;;40.10;31.15;;;19.10;99.90;;;;;;5078654;28;20036;-90
2022/08/19 08:45:18;;;;;;;43.42;33.05;;;19.10;99.90;;;;;;5072477;28;20025;-90
2022/08/19 08:47:48;;;;;;;41.60;32.00;;;19.10;99.90;;;;;;5072457;28;20060;-91
2022/08/19 08:50:22;;;;;;;43.40;32.35;;;19.00;99.90;;;;;;5074511;28;20027;-91
2022/08/19 08:52:51;;;;;;;39.00;30.73;;;19.00;99.90;;;;;;5068994;28;20020;-91
2022/08/19 08:55:21;;;;;;;40.58;31.27;;;18.90;99.90;;;;;;5063941;28;20384;-90
2022/08/19 08:57:54;;;;;;;38.88;31.27;;;18.90;99.90;;;;;;5073908;28;20017;-89
2022/08/19 09:00:43;;;;;;;41.28;31.90;;;18.90;99.90;;;;;;5057455;28;20370;-92
2022/08/19 09:03:36;;;;;;;38.50;31.42;;;18.90;99.90;;;;;;5072197;28;20064;-91
2022/08/19 09:06:12;;;;;;;39.15;31.52;;;18.90;99.90;;;;;;5056093;28;20059;-91
2022/08/19 09:08:57;;;;;;;41.22;32.33;;;18.80;99.90;;;;;;5064475;28;20036;-90
2022/08/19 09:11:47;;;;;;;40.90;31.98;;;18.80;99.90;;;;;;5074266;28;20029;-90
2022/08/19 09:14:33;;;;;;;38.67;30.75;;;18.80;99.90;;;;;;5074029;28;20079;-93
2022/08/19 09:17:03;;;;;;;42.05;32.55;;;18.80;99.90;;;;;;5056221;28;20484;-93
2022/08/19 09:19:29;;;;;;;41.80;32.05;;;18.90;99.90;;;;;;5068979;28;20050;-93
2022/08/19 09:21:55;;;;;;;38.38;31.15;;;18.90;99.90;;;;;;5053760;28;20418;-94
2022/08/19 09:24:21;;;;;;;41.70;33.47;;;18.90;99.90;;;;;;5072236;28;20048;-93
2022/08/19 09:26:46;;;;;;;40.90;31.23;;;18.90;99.90;;;;;;5064816;28;20024;-94
2022/08/19 09:29:13;;;;;;;39.22;31.73;;;19.00;99.90;;;;;;5076492;28;20025;-95
2022/08/19 09:31:38;;;;;;;44.42;33.00;;;19.00;99.90;;;;;;5079878;28;20477;-95
2022/08/19 09:34:04;;;;;;;38.25;30.65;;;19.10;99.90;;;;;;5075259;28;20064;-93
2022/08/19 09:36:35;;;;;;;43.72;33.83;;;19.10;99.90;;;;;;5073917;28;20020;-92
2022/08/19 09:39:05;;;;;;;38.72;30.65;;;19.10;99.90;;;;;;5073690;28;20074;-93
2022/08/19 09:41:31;;;;;;;44.53;32.55;;;19.20;99.90;;;;;;5068228;28;20024;-92
2022/08/19 09:43:58;;;;;;;45.30;33.20;;;19.20;99.90;;;;;;5065003;28;20119;-91
2022/08/19 09:46:26;;;;;;;42.60;31.27;;;19.20;99.90;;;;;;5073915;28;20032;-91
2022/08/19 09:48:52;;;;;;;43.05;32.03;;;19.10;99.90;;;;;;5055929;28;20028;-92
2022/08/19 09:51:22;;;;;;;41.35;32.40;;;19.10;99.90;;;;;;5074214;28;20025;-91
2022/08/19 09:53:53;;;;;;;39.60;30.90;;;19.10;99.90;;;;;;5073000;28;20035;-91
2022/08/19 09:56:21;;;;;;;40.92;30.80;;;19.10;99.90;;;;;;5073288;28;20028;-91
2022/08/19 09:58:47;;;;;;;38.28;29.85;;;19.10;99.90;;;;;;5073231;28;20025;-91
2022/08/19 10:01:22;;;;;;;40.20;31.50;;;19.20;99.90;;;;;;5071639;28;20027;-91
2022/08/19 10:03:53;;;;;;;39.53;30.85;;;19.20;99.90;;;;;;5073382;28;20025;-92
2022/08/19 10:06:24;;;;;;;35.30;27.40;;;19.20;99.90;;;;;;5073231;28;20070;-91
2022/08/19 10:08:51;;;;;;;34.25;26.00;;;19.20;99.90;;;;;;5073742;28;20436;-91
2022/08/19 10:11:18;;;;;;;32.20;25.63;;;19.20;99.90;;;;;;5079590;28;20111;-87
2022/08/19 10:13:44;;;;;;;34.10;24.20;;;19.20;99.90;;;;;;5073237;28;20419;-87
2022/08/19 10:16:13;;;;;;;30.10;23.70;;;19.30;99.90;;;;;;5073402;28;20052;-86
2022/08/19 10:18:43;;;;;;;28.85;22.63;;;19.40;99.90;;;;;;5073285;28;20161;-86
2022/08/19 10:21:13;;;;;;;31.45;23.90;;;19.40;99.90;;;;;;5073615;28;20024;-86
2022/08/19 10:23:44;;;;;;;28.73;21.25;;;19.50;99.90;;;;;;5073310;28;20021;-86
2022/08/19 10:26:11;;;;;;;23.05;17.27;;;19.50;99.90;;;;;;5067897;28;20025;-86
2022/08/19 10:28:37;;;;;;;20.50;17.05;;;19.60;99.90;;;;;;5053364;28;20028;-86
2022/08/19 10:31:08;;;;;;;19.70;16.92;;;19.70;99.90;;;;;;5053172;28;20485;-86
2022/08/19 10:33:35;;;;;;;20.85;16.42;;;19.70;99.90;;;;;;5063346;28;20457;-94
2022/08/19 10:36:04;;;;;;;18.55;14.95;;;19.70;99.90;;;;;;5073611;28;20062;-92
2022/08/19 10:38:29;;;;;;;16.17;12.85;;;19.80;99.90;;;;;;5046686;28;20063;-92
2022/08/19 10:40:55;;;;;;;15.02;12.68;;;19.90;99.90;;;;;;5053334;28;20053;-93
2022/08/19 10:43:21;;;;;;;12.60;11.07;;;20.00;99.90;;;;;;5053330;28;20060;-93
2022/08/19 10:45:56;;;;;;;10.88;8.95;;;20.00;99.90;;;;;;5073446;28;20056;-85
2022/08/19 10:48:22;;;;;;;9.70;8.70;;;19.90;99.90;;;;;;5073641;28;20059;-86
2022/08/19 10:53:32;;;;;;;7.73;6.60;;;19.90;99.90;;;;;;5068897;28;20031;-87
2022/08/19 10:58:41;;;;;;;7.35;6.47;;;20.30;99.90;;;;;;5075611;28;20086;-87
2022/08/19 11:01:07;;;;;;;5.88;4.93;;;20.40;99.90;;;;;;5057797;28;20017;-86
2022/08/19 11:03:32;;;;;;;5.28;4.78;;;20.60;99.90;;;;;;5074931;28;20077;-86
2022/08/19 11:06:07;;;;;;;7.68;5.65;;;20.90;99.90;;;;;;5074508;28;20031;-86
2022/08/19 11:08:34;;;;;;;5.50;4.88;;;21.20;99.90;;;;;;5064213;28;20059;-86
2022/08/19 11:11:02;;;;;;;5.03;4.40;;;21.40;99.90;;;;;;5059000;28;20036;-86
2022/08/19 11:13:37;;;;;;;5.57;4.60;;;21.60;99.90;;;;;;5058130;28;20029;-87
2022/08/19 11:16:08;;;;;;;4.93;4.43;;;21.70;99.90;;;;;;5081291;28;20848;-87
2022/08/19 11:18:39;;;;;;;5.05;4.55;;;21.80;99.90;;;;;;5092172;28;20385;-88
2022/08/19 11:21:18;;;;;;;5.13;3.58;;;21.80;99.90;;;;;;5051613;28;20629;-86
2022/08/19 11:23:45;;;;;;;4.45;3.88;;;21.80;99.90;;;;;;5089929;28;20028;-92
2022/08/19 11:26:14;;;;;;;3.22;2.75;;;21.80;99.90;;;;;;5073313;28;20036;-85
2022/08/19 11:28:44;;;;;;;3.20;2.63;;;21.80;99.90;;;;;;5049580;28;20620;-87
2022/08/19 11:31:16;;;;;;;3.50;2.90;;;21.60;99.90;;;;;;5075418;28;20031;-86
2022/08/19 11:33:43;;;;;;;3.75;2.85;;;21.80;99.90;;;;;;5066734;28;20024;-86
2022/08/19 11:36:08;;;;;;;3.17;2.60;;;21.80;99.90;;;;;;5069842;28;20090;-85
2022/08/19 11:38:38;;;;;;;2.38;2.17;;;22.00;99.90;;;;;;5064416;28;20492;-85
2022/08/19 11:41:07;;;;;;;3.10;2.42;;;22.30;99.90;;;;;;5071924;28;20020;-86
2022/08/19 11:43:33;;;;;;;2.95;2.30;;;22.40;99.90;;;;;;5068159;28;20040;-86
2022/08/19 11:46:00;;;;;;;2.42;2.10;;;22.10;99.90;;;;;;5066987;28;20033;-86
2022/08/19 11:48:25;;;;;;;2.30;2.10;;;21.90;99.90;;;;;;5067604;28;20040;-86
2022/08/19 11:50:57;;;;;;;2.20;2.00;;;21.80;99.90;;;;;;5070792;28;20101;-89
2022/08/19 11:53:23;;;;;;;2.35;1.90;;;21.60;99.90;;;;;;5067332;28;20036;-87
2022/08/19 11:55:53;;;;;;;2.50;2.30;;;21.50;99.90;;;;;;5053146;28;20471;-88
2022/08/19 11:58:19;;;;;;;2.65;2.17;;;21.30;99.90;;;;;;5051786;28;20473;-88
2022/08/19 12:00:45;;;;;;;2.30;2.10;;;21.10;99.90;;;;;;5070602;28;20039;-88
2022/08/19 12:03:12;;;;;;;2.42;1.80;;;21.00;99.90;;;;;;5069148;28;20021;-89
2022/08/19 12:05:40;;;;;;;2.88;2.00;;;20.90;99.90;;;;;;5071455;28;20477;-89
2022/08/19 12:08:06;;;;;;;2.83;2.13;;;20.90;99.90;;;;;;5073489;28;20033;-88
2022/08/19 12:10:32;;;;;;;3.15;2.00;;;20.80;99.90;;;;;;5067865;28;20035;-88
2022/08/19 12:12:58;;;;;;;2.63;2.00;;;20.80;99.90;;;;;;5071255;28;20024;-89
2022/08/19 12:15:24;;;;;;;2.10;1.60;;;20.70;99.90;;;;;;5072668;28;20020;-89
2022/08/19 12:17:49;;;;;;;2.67;1.80;;;20.70;99.90;;;;;;5071863;28;20727;-89
2022/08/19 12:20:16;;;;;;;2.25;2.00;;;20.80;99.90;;;;;;5073015;28;20021;-88
2022/08/19 12:22:43;;;;;;;2.78;1.92;;;20.90;99.90;;;;;;5071523;28;20073;-89
2022/08/19 12:25:10;;;;;;;1.92;1.50;;;21.00;99.90;;;;;;5068682;28;20024;-90
2022/08/19 12:27:37;;;;;;;3.03;1.80;;;21.10;99.90;;;;;;5072813;28;20029;-89
2022/08/19 12:30:03;;;;;;;2.20;2.00;;;21.20;99.90;;;;;;5070913;28;20024;-88
2022/08/19 12:32:29;;;;;;;2.70;2.13;;;21.30;99.90;;;;;;5066101;28;20021;-88
2022/08/19 12:34:55;;;;;;;2.72;2.40;;;21.60;99.90;;;;;;5071623;28;20520;-88
2022/08/19 12:37:21;;;;;;;3.88;2.40;;;21.80;99.90;;;;;;5050713;28;20028;-93
2022/08/19 12:39:47;;;;;;;3.33;2.63;;;21.70;99.90;;;;;;5075519;28;20461;-94
2022/08/19 12:42:14;;;;;;;2.28;2.08;;;21.80;99.90;;;;;;5067082;28;20397;-92
2022/08/19 12:44:41;;;;;;;3.03;2.70;;;22.00;99.90;;;;;;5069161;28;20025;-89
2022/08/19 12:47:09;;;;;;;3.00;2.25;;;22.00;99.90;;;;;;5063343;28;20493;-85
2022/08/19 12:49:39;;;;;;;2.90;2.25;;;21.90;99.90;;;;;;5064714;28;20042;-85
2022/08/19 12:52:07;;;;;;;3.40;2.30;;;21.90;99.90;;;;;;5067655;28;20025;-85
2022/08/19 12:54:34;;;;;;;2.78;2.47;;;21.80;99.90;;;;;;5069576;28;20422;-84
2022/08/19 12:57:00;;;;;;;2.88;2.20;;;21.70;99.90;;;;;;5069129;28;20086;-84
2022/08/19 12:59:27;;;;;;;3.28;2.70;;;21.70;99.90;;;;;;5061762;28;20028;-84